Time;durP1;ratioP1;P1;durP2;ratioP2;P2;SDS_P1;SDS_P2;PMS_P1;PMS_P2;Temp;Humidity;BMP_temperature;BMP_pressure;BME280_temperature;BME280_humidity;BME280_pressure;Samples;Min_cycle;Max_cycle;Signal;HPM_P1;HPM_P2
2022/08/26 00:00:47;;;;;;;22.73;17.90;;;21.70;99.90;;;;;;5089972;28;20432;-85
2022/08/26 00:03:15;;;;;;;21.77;16.63;;;21.70;99.90;;;;;;5110184;28;20510;-84
2022/08/26 00:05:45;;;;;;;34.93;20.23;;;21.60;99.90;;;;;;5101287;28;21055;-85
2022/08/26 00:08:13;;;;;;;19.60;16.97;;;21.50;99.90;;;;;;5100719;28;20424;-85
2022/08/26 00:10:41;;;;;;;20.30;17.40;;;21.70;99.90;;;;;;5107476;28;20826;-85
2022/08/26 00:13:10;;;;;;;26.50;17.87;;;21.60;99.90;;;;;;5113406;28;20445;-85
2022/08/26 00:15:39;;;;;;;33.67;17.90;;;21.40;99.90;;;;;;5104404;27;20418;-85
2022/08/26 00:18:07;;;;;;;19.27;16.60;;;21.40;99.90;;;;;;5111593;27;20517;-85
2022/08/26 00:20:48;;;;;;;20.30;18.40;;;21.30;99.90;;;;;;5102486;28;20618;-85
2022/08/26 00:23:16;;;;;;;19.57;17.40;;;21.30;99.90;;;;;;5113768;27;20445;-86
2022/08/26 00:25:50;;;;;;;22.27;19.33;;;21.40;99.90;;;;;;5103357;28;20478;-86
2022/08/26 00:28:17;;;;;;;24.53;19.20;;;21.40;99.90;;;;;;5084221;28;20446;-86
2022/08/26 00:30:48;;;;;;;25.27;19.40;;;21.40;99.90;;;;;;5119857;28;20426;-86
2022/08/26 00:33:18;;;;;;;23.10;21.00;;;21.30;99.90;;;;;;5111126;28;20404;-84
2022/08/26 00:35:46;;;;;;;20.67;18.33;;;21.40;99.90;;;;;;5104196;28;20453;-86
2022/08/26 00:38:14;;;;;;;20.27;17.83;;;21.30;99.90;;;;;;5098362;28;20426;-85
2022/08/26 00:40:55;;;;;;;28.07;19.87;;;21.20;99.90;;;;;;5112049;28;20416;-86
2022/08/26 00:43:31;;;;;;;23.30;21.00;;;21.00;99.90;;;;;;5088136;28;20448;-86
2022/08/26 00:46:27;;;;;;;22.87;18.90;;;21.00;99.90;;;;;;5105948;28;20434;-85
2022/08/26 00:49:10;;;;;;;21.43;19.23;;;21.30;99.90;;;;;;5126433;28;20449;-85
2022/08/26 00:51:46;;;;;;;22.97;20.67;;;21.20;99.90;;;;;;5105375;28;20413;-85
2022/08/26 00:54:14;;;;;;;22.10;19.80;;;21.20;99.90;;;;;;5113582;28;20508;-86
2022/08/26 00:56:55;;;;;;;24.43;20.60;;;21.30;99.90;;;;;;5107922;28;20449;-85
2022/08/26 00:59:26;;;;;;;25.20;18.87;;;21.30;99.90;;;;;;5107848;28;20411;-86
2022/08/26 01:01:55;;;;;;;22.30;18.60;;;21.20;99.90;;;;;;5102108;28;20789;-85
2022/08/26 01:04:25;;;;;;;20.30;18.30;;;21.10;99.90;;;;;;5102201;28;20640;-85
2022/08/26 01:06:53;;;;;;;20.00;18.07;;;21.00;99.90;;;;;;5091687;28;20445;-85
2022/08/26 01:09:22;;;;;;;21.60;19.60;;;21.00;99.90;;;;;;5099964;28;20484;-86
2022/08/26 01:11:53;;;;;;;21.50;18.90;;;21.00;99.90;;;;;;5096875;28;20443;-86
2022/08/26 01:14:22;;;;;;;19.93;17.80;;;21.10;99.90;;;;;;5106450;28;20473;-85
2022/08/26 01:16:49;;;;;;;20.77;18.60;;;21.10;99.90;;;;;;5087272;28;20429;-86
2022/08/26 01:19:22;;;;;;;25.77;20.80;;;21.20;99.90;;;;;;5109873;28;20441;-85
2022/08/26 01:21:57;;;;;;;20.13;18.13;;;21.20;99.90;;;;;;5085819;28;20479;-85
2022/08/26 01:24:27;;;;;;;28.23;21.03;;;21.20;99.90;;;;;;5103086;28;20433;-85
2022/08/26 01:27:11;;;;;;;29.23;19.43;;;21.20;99.90;;;;;;5096909;28;20419;-86
2022/08/26 01:29:41;;;;;;;19.83;18.03;;;21.20;99.90;;;;;;5100510;28;20443;-86
2022/08/26 01:32:13;;;;;;;22.17;18.47;;;21.10;99.90;;;;;;5116345;28;20556;-85
2022/08/26 01:34:40;;;;;;;23.90;21.30;;;21.10;99.90;;;;;;5102234;28;20829;-85
2022/08/26 01:37:20;;;;;;;24.93;22.00;;;21.10;99.90;;;;;;5106245;28;20441;-86
2022/08/26 01:39:54;;;;;;;23.13;20.43;;;21.10;99.90;;;;;;5094047;28;20439;-86
2022/08/26 01:42:24;;;;;;;24.53;22.03;;;21.10;99.90;;;;;;5110502;28;20440;-86
2022/08/26 01:44:58;;;;;;;24.07;21.67;;;21.20;99.90;;;;;;5102853;28;20426;-85
2022/08/26 01:47:30;;;;;;;28.67;20.67;;;21.10;99.90;;;;;;5111182;28;20419;-84
2022/08/26 01:50:02;;;;;;;26.47;20.40;;;21.10;99.90;;;;;;5086674;28;20474;-83
2022/08/26 01:52:32;;;;;;;24.83;20.83;;;21.00;99.90;;;;;;5112554;28;20502;-84
2022/08/26 01:55:00;;;;;;;21.80;19.20;;;20.90;99.90;;;;;;5105893;28;20480;-84
2022/08/26 01:57:33;;;;;;;23.67;21.20;;;20.80;99.90;;;;;;5105073;28;20427;-84
2022/08/26 02:00:06;;;;;;;29.03;22.07;;;20.80;99.90;;;;;;5104945;28;20469;-84
2022/08/26 02:02:34;;;;;;;26.33;19.90;;;20.90;99.90;;;;;;5115057;28;20473;-84
2022/08/26 02:05:06;;;;;;;26.80;23.53;;;20.90;99.90;;;;;;5099342;28;20429;-84
2022/08/26 02:07:33;;;;;;;29.13;21.97;;;20.80;99.90;;;;;;5084839;28;20413;-85
2022/08/26 02:10:04;;;;;;;29.67;24.80;;;20.80;99.90;;;;;;5108280;28;20420;-85
2022/08/26 02:12:32;;;;;;;34.70;20.43;;;20.90;99.90;;;;;;5088012;28;20427;-85
2022/08/26 02:15:02;;;;;;;20.90;19.07;;;20.90;99.90;;;;;;5099120;28;20493;-85
2022/08/26 02:17:41;;;;;;;22.83;20.63;;;21.00;99.90;;;;;;5101240;28;20475;-84
2022/08/26 02:20:10;;;;;;;22.60;20.23;;;21.00;99.90;;;;;;5101266;28;20479;-84
2022/08/26 02:22:41;;;;;;;21.93;19.73;;;20.90;99.90;;;;;;5106198;28;20402;-84
2022/08/26 02:25:15;;;;;;;24.30;21.90;;;20.80;99.90;;;;;;5108936;28;20442;-84
2022/08/26 02:27:44;;;;;;;22.73;18.73;;;20.70;99.90;;;;;;5099977;28;20471;-84
2022/08/26 02:30:22;;;;;;;29.83;20.13;;;20.90;99.90;;;;;;5093331;28;20741;-83
2022/08/26 02:32:50;;;;;;;25.20;20.23;;;20.90;99.90;;;;;;5100326;28;20437;-83
2022/08/26 02:35:19;;;;;;;25.20;22.50;;;20.90;99.90;;;;;;5120473;28;20451;-85
2022/08/26 02:37:48;;;;;;;21.70;19.60;;;20.80;99.90;;;;;;5111835;28;20413;-85
2022/08/26 02:40:22;;;;;;;26.17;22.70;;;20.80;99.90;;;;;;5106918;28;20427;-86
2022/08/26 02:42:49;;;;;;;22.83;20.00;;;20.80;99.90;;;;;;5101735;28;20489;-84
2022/08/26 02:45:25;;;;;;;28.40;22.30;;;20.80;99.90;;;;;;5094581;28;20440;-86
2022/08/26 02:47:52;;;;;;;32.23;20.27;;;20.80;99.90;;;;;;5109215;28;20438;-87
2022/08/26 02:50:22;;;;;;;28.50;20.33;;;21.00;99.90;;;;;;5131238;28;20603;-86
2022/08/26 02:52:51;;;;;;;24.13;20.90;;;20.90;99.90;;;;;;5110930;28;20464;-85
2022/08/26 02:55:18;;;;;;;24.93;22.33;;;20.90;99.90;;;;;;5086840;28;20478;-86
2022/08/26 02:57:51;;;;;;;29.47;22.20;;;20.80;99.90;;;;;;5093555;28;20406;-86
2022/08/26 03:00:24;;;;;;;22.00;19.73;;;20.80;99.90;;;;;;5101943;28;20525;-85
2022/08/26 03:02:53;;;;;;;29.80;18.60;;;20.70;99.90;;;;;;5104858;28;20412;-86
2022/08/26 03:05:22;;;;;;;25.00;22.37;;;20.80;99.90;;;;;;5106597;28;20438;-87
2022/08/26 03:07:50;;;;;;;32.90;24.23;;;20.70;99.90;;;;;;5104012;28;20514;-86
2022/08/26 03:10:18;;;;;;;27.47;24.97;;;20.60;99.90;;;;;;5111108;28;21069;-87
2022/08/26 03:12:45;;;;;;;26.23;23.47;;;20.60;99.90;;;;;;5115447;28;20416;-86
2022/08/26 03:15:16;;;;;;;30.00;24.07;;;20.60;99.90;;;;;;5111263;28;20453;-86
2022/08/26 03:17:46;;;;;;;23.70;20.43;;;20.60;99.90;;;;;;5110828;28;20450;-86
2022/08/26 03:20:14;;;;;;;23.13;20.47;;;20.70;99.90;;;;;;5114411;28;20444;-86
2022/08/26 03:22:43;;;;;;;24.90;21.43;;;20.70;99.90;;;;;;5102993;28;20450;-86
2022/08/26 03:25:15;;;;;;;22.60;19.50;;;20.70;99.90;;;;;;5100709;28;20816;-86
2022/08/26 03:27:43;;;;;;;24.20;20.50;;;20.70;99.90;;;;;;5105876;28;21570;-86
2022/08/26 03:32:58;;;;;;;23.83;21.23;;;20.60;99.90;;;;;;5102144;28;20470;-85
2022/08/26 03:35:27;;;;;;;22.47;20.23;;;20.60;99.90;;;;;;5103201;28;20475;-84
2022/08/26 03:37:54;;;;;;;22.20;20.17;;;20.50;99.90;;;;;;5112024;28;20461;-83
2022/08/26 03:40:24;;;;;;;23.00;19.10;;;20.50;99.90;;;;;;5103918;28;20788;-84
2022/08/26 03:42:54;;;;;;;25.53;18.80;;;20.40;99.90;;;;;;5105647;28;20410;-84
2022/08/26 03:45:22;;;;;;;24.57;20.87;;;20.40;99.90;;;;;;5109799;28;20417;-85
2022/08/26 03:47:50;;;;;;;21.10;18.90;;;20.40;99.90;;;;;;5107042;28;20526;-85
2022/08/26 03:50:22;;;;;;;21.97;19.23;;;20.40;99.90;;;;;;5105442;28;20439;-85
2022/08/26 03:52:51;;;;;;;21.60;19.50;;;20.30;99.90;;;;;;5108638;28;20441;-84
2022/08/26 03:55:23;;;;;;;21.23;19.10;;;20.30;99.90;;;;;;5102039;28;20454;-85
2022/08/26 03:57:51;;;;;;;21.03;18.37;;;20.30;99.90;;;;;;5101400;28;20680;-85
2022/08/26 04:00:19;;;;;;;21.43;19.13;;;20.30;99.90;;;;;;5103164;28;20514;-85
2022/08/26 04:02:49;;;;;;;26.23;19.87;;;20.30;99.90;;;;;;5101964;28;20555;-86
2022/08/26 04:05:20;;;;;;;19.90;18.07;;;20.30;99.90;;;;;;5108515;28;20447;-86
2022/08/26 04:07:48;;;;;;;20.93;18.77;;;20.20;99.90;;;;;;5109451;28;20423;-86
2022/08/26 04:10:22;;;;;;;21.77;19.47;;;20.30;99.90;;;;;;5115746;28;20427;-86
2022/08/26 04:12:55;;;;;;;21.80;19.47;;;20.30;99.90;;;;;;5088271;28;20402;-86
2022/08/26 04:15:33;;;;;;;22.03;19.70;;;20.30;99.90;;;;;;5103590;28;20455;-85
2022/08/26 04:18:00;;;;;;;20.93;18.70;;;20.20;99.90;;;;;;5108593;28;20446;-85
2022/08/26 04:20:32;;;;;;;21.13;18.93;;;20.30;99.90;;;;;;5114029;28;20420;-86
2022/08/26 04:22:59;;;;;;;24.33;18.70;;;20.30;99.90;;;;;;5112650;28;20432;-86
2022/08/26 04:25:27;;;;;;;21.27;19.17;;;20.30;99.90;;;;;;5110873;28;20880;-87
2022/08/26 04:27:58;;;;;;;20.90;18.70;;;20.40;99.90;;;;;;5108196;28;20808;-86
2022/08/26 04:30:26;;;;;;;21.03;17.87;;;20.30;99.90;;;;;;5112685;28;20450;-86
2022/08/26 04:32:55;;;;;;;24.17;17.93;;;20.30;99.90;;;;;;5100166;28;20463;-85
2022/08/26 04:35:25;;;;;;;17.47;15.83;;;20.30;99.90;;;;;;5101032;28;20463;-85
2022/08/26 04:37:53;;;;;;;18.43;16.77;;;20.30;99.90;;;;;;5102348;28;20623;-87
2022/08/26 04:40:20;;;;;;;18.53;16.10;;;20.40;99.90;;;;;;5109125;28;20425;-84
2022/08/26 04:42:50;;;;;;;18.67;16.77;;;20.50;99.90;;;;;;5118215;28;20444;-86
2022/08/26 04:45:17;;;;;;;17.60;15.67;;;20.50;99.90;;;;;;5118470;28;20453;-83
2022/08/26 04:47:55;;;;;;;18.13;16.37;;;20.50;99.90;;;;;;5108700;28;20377;-84
2022/08/26 04:50:24;;;;;;;20.30;17.33;;;20.60;99.90;;;;;;5106256;28;20437;-85
2022/08/26 04:52:54;;;;;;;18.83;15.30;;;20.50;99.90;;;;;;5113888;28;20438;-86
2022/08/26 04:55:25;;;;;;;19.17;16.80;;;20.60;99.90;;;;;;5104249;28;20485;-86
2022/08/26 04:58:08;;;;;;;19.80;17.90;;;20.80;99.90;;;;;;5110263;28;20414;-86
2022/08/26 05:00:36;;;;;;;17.77;16.27;;;20.90;99.90;;;;;;5117195;28;20480;-86
2022/08/26 05:03:03;;;;;;;17.30;15.50;;;21.00;99.90;;;;;;5107090;28;20766;-87
2022/08/26 05:05:33;;;;;;;16.60;14.83;;;21.10;99.90;;;;;;5110101;28;21019;-87
2022/08/26 05:08:02;;;;;;;17.07;15.40;;;21.10;99.90;;;;;;5107405;28;20474;-86
2022/08/26 05:10:29;;;;;;;14.37;13.07;;;21.20;99.90;;;;;;5108457;28;20552;-86
2022/08/26 05:12:59;;;;;;;15.97;14.37;;;21.30;99.90;;;;;;5107331;28;20541;-86
2022/08/26 05:15:25;;;;;;;15.67;14.10;;;21.10;99.90;;;;;;5115642;28;20856;-86
2022/08/26 05:17:52;;;;;;;16.27;14.67;;;21.20;99.90;;;;;;5093335;28;20452;-86
2022/08/26 05:20:20;;;;;;;16.67;15.07;;;21.30;99.90;;;;;;5090540;28;20427;-86
2022/08/26 05:22:51;;;;;;;15.80;14.40;;;21.50;99.90;;;;;;5096840;28;20417;-86
2022/08/26 05:25:20;;;;;;;15.37;14.10;;;21.30;99.90;;;;;;5102653;28;20949;-85
2022/08/26 05:27:47;;;;;;;14.57;13.13;;;21.50;99.90;;;;;;5114488;28;20510;-85
2022/08/26 05:30:17;;;;;;;16.00;13.20;;;21.60;99.90;;;;;;5103973;28;20511;-86
2022/08/26 05:32:48;;;;;;;14.33;12.30;;;21.70;99.90;;;;;;5116751;28;20410;-86
2022/08/26 05:35:21;;;;;;;15.00;12.63;;;21.60;99.90;;;;;;5103356;28;20449;-86
2022/08/26 05:37:49;;;;;;;14.60;13.30;;;21.50;99.90;;;;;;5104292;28;20469;-87
2022/08/26 05:40:17;;;;;;;12.87;11.67;;;21.50;99.90;;;;;;5098615;28;20486;-85
2022/08/26 05:42:46;;;;;;;14.13;12.83;;;21.80;99.90;;;;;;5106382;28;20450;-85
2022/08/26 05:45:18;;;;;;;12.87;11.67;;;21.90;99.90;;;;;;5107483;28;20774;-86
2022/08/26 05:47:46;;;;;;;16.07;13.00;;;22.00;99.90;;;;;;5102515;28;20420;-87
2022/08/26 05:50:14;;;;;;;13.73;12.57;;;22.20;99.90;;;;;;5101852;28;20451;-87
2022/08/26 05:53:25;;;;;;;16.30;12.63;;;22.20;99.90;;;;;;5102623;28;20488;-87
2022/08/26 05:55:56;;;;;;;12.87;11.70;;;22.40;99.90;;;;;;5077810;28;20526;-87
2022/08/26 05:58:34;;;;;;;12.50;11.60;;;22.80;99.90;;;;;;5100741;28;20434;-88
2022/08/26 06:01:18;;;;;;;13.03;11.13;;;23.00;99.90;;;;;;5091457;28;20448;-89
2022/08/26 06:04:01;;;;;;;12.80;11.60;;;23.20;99.90;;;;;;5100175;28;20431;-88
2022/08/26 06:06:40;;;;;;;12.50;10.83;;;23.40;99.90;;;;;;5113370;28;20417;-89
2022/08/26 06:09:09;;;;;;;14.57;12.30;;;23.70;99.90;;;;;;5098771;28;20458;-90
2022/08/26 06:11:39;;;;;;;12.50;11.30;;;24.00;99.90;;;;;;5095406;28;20417;-90
2022/08/26 06:14:09;;;;;;;12.10;11.10;;;24.40;99.90;;;;;;5095567;28;20458;-89
2022/08/26 06:16:43;;;;;;;11.87;10.70;;;25.00;99.90;;;;;;5095762;28;21030;-89
2022/08/26 06:19:14;;;;;;;10.40;9.50;;;25.70;99.90;;;;;;5089840;28;20506;-90
2022/08/26 06:21:50;;;;;;;13.80;11.20;;;25.60;99.90;;;;;;5101462;28;20861;-90
2022/08/26 06:27:12;;;;;;;15.03;10.10;;;26.30;99.90;;;;;;5098768;28;20439;-89
2022/08/26 06:29:41;;;;;;;13.70;9.60;;;26.20;99.90;;;;;;5087280;28;20448;-89
2022/08/26 06:32:08;;;;;;;10.10;9.30;;;26.60;99.90;;;;;;5098041;28;20450;-89
2022/08/26 06:34:35;;;;;;;12.73;11.47;;;26.80;99.90;;;;;;5099507;28;20557;-87
2022/08/26 06:37:04;;;;;;;14.73;10.90;;;27.00;99.90;;;;;;5122636;28;20477;-89
2022/08/26 06:39:41;;;;;;;13.13;10.30;;;27.70;99.90;;;;;;5115278;28;20469;-92
2022/08/26 06:42:09;;;;;;;13.07;10.40;;;28.20;99.90;;;;;;5106602;28;20431;-87
2022/08/26 06:44:40;;;;;;;14.43;10.97;;;28.70;99.90;;;;;;5103931;28;20553;-88
2022/08/26 06:47:13;;;;;;;11.37;10.17;;;29.80;99.90;;;;;;5105600;28;20514;-91
2022/08/26 06:49:42;;;;;;;18.43;12.83;;;30.50;99.90;;;;;;5105484;28;20799;-90
2022/08/26 06:52:13;;;;;;;12.93;11.73;;;30.50;99.90;;;;;;5104885;28;20455;-90
2022/08/26 06:54:51;;;;;;;14.33;10.47;;;31.50;99.90;;;;;;5092361;28;20426;-87
2022/08/26 06:57:19;;;;;;;15.20;11.77;;;32.00;99.90;;;;;;5111201;28;20496;-90
2022/08/26 06:59:47;;;;;;;11.80;10.60;;;30.70;99.90;;;;;;5100080;28;20433;-90
2022/08/26 07:02:19;;;;;;;14.20;12.10;;;31.00;99.90;;;;;;5096835;28;20446;-86
2022/08/26 07:04:47;;;;;;;11.77;10.67;;;31.80;99.90;;;;;;5110549;28;20535;-90
2022/08/26 07:07:16;;;;;;;11.57;10.53;;;32.10;99.90;;;;;;5107706;28;20446;-90
2022/08/26 07:09:50;;;;;;;17.00;12.60;;;32.60;99.90;;;;;;5093187;28;20430;-89
2022/08/26 07:12:25;;;;;;;12.50;11.30;;;32.90;99.90;;;;;;5099807;28;20498;-90
2022/08/26 07:14:54;;;;;;;12.80;11.00;;;34.20;99.90;;;;;;5108208;28;20446;-86
2022/08/26 07:17:25;;;;;;;14.77;10.37;;;35.60;99.90;;;;;;5104844;28;20427;-88
2022/08/26 07:19:52;;;;;;;19.90;11.63;;;36.80;99.90;;;;;;5116403;28;20513;-86
2022/08/26 07:22:19;;;;;;;12.70;11.50;;;37.90;99.00;;;;;;5574198;22;20471;-86
2022/08/26 07:38:20;;;;;;;16.63;12.43;;;38.10;93.40;;;;;;5152883;22;20515;-87
2022/08/26 07:43:24;;;;;;;15.23;10.97;;;39.20;91.40;;;;;;5078151;28;20471;-85
2022/08/26 07:45:55;;;;;;;20.57;10.83;;;39.80;88.20;;;;;;5080693;28;20488;-86
2022/08/26 07:48:23;;;;;;;12.60;11.30;;;38.80;90.20;;;;;;5074400;28;20472;-87
2022/08/26 07:50:52;;;;;;;15.13;11.07;;;36.80;94.30;;;;;;5170366;22;20846;-90
2022/08/26 07:53:21;;;;;;;15.23;10.87;;;37.00;94.90;;;;;;5817300;22;20487;-87
2022/08/26 07:55:50;;;;;;;12.10;9.63;;;38.60;91.30;;;;;;5318949;22;20528;-86
2022/08/26 07:58:19;;;;;;;12.70;9.40;;;38.30;90.00;;;;;;5083599;28;20456;-89
2022/08/26 08:00:46;;;;;;;9.70;8.90;;;35.90;93.60;;;;;;5081229;28;20458;-87
2022/08/26 08:03:13;;;;;;;10.23;8.93;;;35.00;97.00;;;;;;5079020;28;20440;-87
2022/08/26 08:05:41;;;;;;;11.97;9.50;;;35.90;96.60;;;;;;5371816;22;20587;-88
2022/08/26 08:08:13;;;;;;;11.10;9.83;;;36.30;95.50;;;;;;5053950;28;20791;-88
2022/08/26 08:10:55;;;;;;;15.80;9.90;;;36.60;95.40;;;;;;5052024;28;20437;-86
2022/08/26 08:13:23;;;;;;;13.50;10.17;;;37.10;93.40;;;;;;5049632;28;20460;-87
2022/08/26 08:15:50;;;;;;;11.17;9.20;;;37.00;93.30;;;;;;5035107;28;20871;-88
2022/08/26 08:18:17;;;;;;;13.90;9.13;;;37.70;91.70;;;;;;5055659;28;21014;-87
2022/08/26 08:20:46;;;;;;;11.50;9.80;;;37.10;93.30;;;;;;5051222;28;20471;-88
2022/08/26 08:23:32;;;;;;;13.60;9.00;;;36.50;93.50;;;;;;5124013;22;20508;-85
2022/08/26 08:26:08;;;;;;;9.23;8.27;;;36.60;93.80;;;;;;5327626;22;20822;-88
2022/08/26 08:28:37;;;;;;;18.47;9.23;;;35.80;95.80;;;;;;5072136;28;20825;-88
2022/08/26 08:31:05;;;;;;;14.73;8.60;;;35.90;95.40;;;;;;5084089;28;20436;-87
2022/08/26 08:33:33;;;;;;;8.80;7.83;;;36.40;94.30;;;;;;5064682;28;20463;-87
2022/08/26 08:36:01;;;;;;;8.20;7.40;;;36.30;94.50;;;;;;5123874;22;20540;-84
2022/08/26 08:38:30;;;;;;;21.97;7.30;;;37.40;92.10;;;;;;5075328;28;20631;-88
2022/08/26 08:40:57;;;;;;;11.00;8.37;;;36.40;91.90;;;;;;5054508;28;20483;-84
2022/08/26 08:52:25;;;;;;;7.70;7.00;;;36.70;90.90;;;;;;5438209;22;20475;-84
2022/08/26 09:00:27;;;;;;;;;;;;;;;;;;;;;
2022/08/26 09:03:02;;;;;;;11.67;8.20;;;39.70;77.60;;;;;;5035536;28;20445;-85
2022/08/26 09:05:38;;;;;;;8.30;7.40;;;36.60;85.30;;;;;;5187916;23;20571;-88
2022/08/26 09:10:59;;;;;;;8.83;6.83;;;37.10;89.00;;;;;;5491231;22;20471;-87
2022/08/26 09:16:18;;;;;;;11.47;7.03;;;38.90;78.50;;;;;;6116873;22;20773;-85
2022/08/26 09:21:51;;;;;;;7.07;6.00;;;38.60;75.30;;;;;;4885711;22;20491;-90
2022/08/26 09:24:19;;;;;;;13.63;7.20;;;38.10;71.70;;;;;;5388329;23;20908;-87
2022/08/26 09:26:57;;;;;;;8.80;6.50;;;37.30;75.90;;;;;;5375233;22;21413;-88
2022/08/26 09:35:08;;;;;;;13.53;7.87;;;33.30;92.70;;;;;;5026151;28;20422;-89
2022/08/26 09:37:43;;;;;;;8.53;6.30;;;31.80;96.90;;;;;;5029582;28;20422;-87
2022/08/26 09:40:31;;;;;;;9.00;6.20;;;31.20;97.40;;;;;;5238441;22;21515;-89
2022/08/26 09:48:35;;;;;;;7.00;6.33;;;30.30;99.90;;;;;;5148335;22;20508;-89
2022/08/26 09:51:21;;;;;;;11.60;6.70;;;30.20;99.90;;;;;;5360426;23;20514;-84
2022/08/26 09:53:57;;;;;;;7.87;7.00;;;30.20;99.90;;;;;;5066476;22;20458;-85
2022/08/26 09:59:10;;;;;;;8.23;5.97;;;30.20;99.90;;;;;;5229517;23;20739;-90
2022/08/26 10:01:43;;;;;;;11.93;6.60;;;30.40;99.90;;;;;;5302483;23;20514;-88
2022/08/26 10:07:04;;;;;;;7.77;7.17;;;30.40;99.90;;;;;;5777873;23;20585;-89
2022/08/26 10:17:58;;;;;;;9.20;5.47;;;30.50;99.90;;;;;;4988245;28;20442;-85
2022/08/26 10:20:30;;;;;;;10.37;6.20;;;30.10;99.90;;;;;;5009053;28;20580;-86
2022/08/26 10:26:20;;;;;;;11.13;6.40;;;29.70;99.90;;;;;;5328305;22;20802;-86
2022/08/26 10:36:56;;;;;;;6.23;5.73;;;29.80;99.90;;;;;;5682171;22;20494;-87
2022/08/26 10:43:27;;;;;;;10.07;6.50;;;30.00;99.90;;;;;;5217374;23;20517;-88
2022/08/26 10:49:00;;;;;;;10.93;6.60;;;29.80;99.90;;;;;;5291425;23;20586;-90
2022/08/26 10:51:34;;;;;;;6.83;6.23;;;29.90;99.90;;;;;;5421801;23;20574;-88
2022/08/26 10:57:13;;;;;;;10.23;5.67;;;29.80;99.90;;;;;;5298146;23;21895;-91
2022/08/26 10:59:59;;;;;;;7.50;6.10;;;30.00;99.90;;;;;;5061858;28;20433;-89
2022/08/26 11:08:18;;;;;;;11.13;6.50;;;29.80;99.90;;;;;;5404154;23;20497;-88
2022/08/26 11:11:00;;;;;;;13.00;7.13;;;29.90;99.90;;;;;;5449206;22;20608;-88
2022/08/26 11:13:55;;;;;;;6.10;5.50;;;29.90;99.20;;;;;;5045433;28;20447;-89
2022/08/26 11:27:34;;;;;;;5.93;5.30;;;30.30;97.50;;;;;;5412341;22;20456;-90
2022/08/26 11:35:35;;;;;;;11.93;6.10;;;30.60;95.30;;;;;;5455747;23;20582;-89
2022/08/26 11:38:15;;;;;;;10.33;5.50;;;30.50;93.70;;;;;;5123890;23;21452;-88
2022/08/26 11:41:19;;;;;;;5.80;5.20;;;30.30;96.50;;;;;;5651266;23;20548;-88
2022/08/26 11:43:51;;;;;;;10.33;5.30;;;30.20;94.50;;;;;;5803616;22;21602;-91
2022/08/26 11:46:29;;;;;;;11.03;4.87;;;30.30;94.80;;;;;;5288134;23;20554;-87
2022/08/26 11:49:18;;;;;;;9.30;4.77;;;30.20;94.60;;;;;;5046193;28;20442;-87
2022/08/26 11:52:20;;;;;;;7.37;5.40;;;30.30;92.80;;;;;;5033813;28;20451;-87
2022/08/26 11:55:08;;;;;;;8.07;4.87;;;30.10;93.80;;;;;;5026004;28;20846;-87
2022/08/26 12:01:00;;;;;;;10.63;4.83;;;30.30;94.60;;;;;;5766708;22;20490;-88
2022/08/26 12:14:26;;;;;;;8.67;5.17;;;30.30;91.60;;;;;;4507391;22;20482;-89
2022/08/26 12:23:09;;;;;;;8.80;5.23;;;30.50;91.40;;;;;;5695259;22;20712;-87
2022/08/26 12:33:38;;;;;;;6.03;4.17;;;30.20;88.50;;;;;;5388416;22;20520;-89
2022/08/26 12:38:42;;;;;;;7.57;4.30;;;30.20;90.40;;;;;;5668610;23;20439;-85
2022/08/26 12:41:11;;;;;;;4.83;4.27;;;30.30;90.30;;;;;;5279923;23;20517;-84
2022/08/26 12:46:27;;;;;;;4.47;4.07;;;30.20;87.30;;;;;;5414048;22;20809;-87
2022/08/26 12:49:02;;;;;;;4.50;4.07;;;30.00;87.90;;;;;;5389518;23;20497;-89
2022/08/26 12:51:40;;;;;;;5.30;4.50;;;30.00;89.20;;;;;;5104176;23;20493;-88
2022/08/26 12:54:14;;;;;;;4.80;3.93;;;30.00;89.90;;;;;;5049947;28;20450;-88
2022/08/26 12:56:49;;;;;;;6.37;4.27;;;30.20;91.60;;;;;;5109752;23;20537;-85
2022/08/26 12:59:23;;;;;;;9.00;4.50;;;30.20;91.90;;;;;;5895063;22;20483;-88
2022/08/26 13:01:54;;;;;;;4.70;4.30;;;30.40;90.40;;;;;;5361457;23;20526;-87
2022/08/26 13:04:41;;;;;;;4.40;3.70;;;30.30;90.30;;;;;;5272715;23;20521;-86
2022/08/26 13:07:19;;;;;;;16.50;5.60;;;30.40;89.30;;;;;;5070476;28;20554;-87
2022/08/26 13:09:49;;;;;;;8.70;4.90;;;30.20;89.30;;;;;;5255050;22;20554;-85
2022/08/26 13:15:12;;;;;;;7.93;4.80;;;30.30;91.60;;;;;;5150446;23;20497;-87
2022/08/26 13:17:40;;;;;;;5.10;4.60;;;30.20;91.80;;;;;;5394902;22;20471;-85
2022/08/26 13:20:07;;;;;;;5.27;4.73;;;30.20;91.90;;;;;;5728941;23;20536;-87
2022/08/26 13:25:19;;;;;;;6.80;4.20;;;30.40;93.40;;;;;;5732497;23;20479;-88
2022/08/26 13:30:25;;;;;;;4.60;4.20;;;30.40;94.00;;;;;;5212185;22;20514;-91
2022/08/26 13:32:58;;;;;;;5.67;5.07;;;30.50;92.50;;;;;;5035877;28;20455;-87
2022/08/26 13:41:03;;;;;;;5.30;4.43;;;30.50;94.00;;;;;;5509961;22;20476;-86
2022/08/26 13:48:48;;;;;;;4.80;4.40;;;30.20;95.80;;;;;;5559731;23;20551;-87
2022/08/26 13:51:19;;;;;;;6.00;4.77;;;30.20;95.00;;;;;;5048815;28;20613;-88
2022/08/26 13:53:49;;;;;;;5.27;4.77;;;30.30;93.40;;;;;;5431233;22;20490;-89
2022/08/26 13:59:00;;;;;;;5.57;4.40;;;30.10;95.10;;;;;;5267944;23;20569;-90
2022/08/26 14:01:29;;;;;;;6.60;4.17;;;29.90;95.70;;;;;;5075661;23;20475;-87
2022/08/26 14:03:57;;;;;;;5.40;4.40;;;29.90;96.60;;;;;;5219245;23;20505;-89
2022/08/26 14:09:02;;;;;;;7.23;4.90;;;30.10;96.20;;;;;;5098017;23;20786;-89
2022/08/26 14:11:29;;;;;;;5.43;4.23;;;30.10;96.00;;;;;;5549447;23;20488;-89
2022/08/26 14:14:18;;;;;;;10.00;4.10;;;30.10;94.70;;;;;;5442385;22;20574;-88
2022/08/26 14:16:51;;;;;;;4.60;3.90;;;30.10;93.40;;;;;;5105678;23;20473;-87
2022/08/26 14:22:07;;;;;;;9.00;4.57;;;30.10;95.20;;;;;;5444914;23;20514;-88
2022/08/26 14:24:34;;;;;;;8.20;4.30;;;30.10;94.60;;;;;;5114047;22;20496;-88
2022/08/26 14:37:30;;;;;;;6.47;4.80;;;30.10;94.00;;;;;;5120570;22;20550;-87
2022/08/26 14:39:57;;;;;;;4.67;3.80;;;30.10;94.60;;;;;;5051066;28;20439;-84
2022/08/26 14:59:01;;;;;;;4.50;4.10;;;30.10;90.40;;;;;;5885013;22;20447;31
2022/08/26 15:04:04;;;;;;;3.97;3.57;;;30.10;91.20;;;;;;5615073;22;22122;-87
2022/08/26 15:14:30;;;;;;;3.70;3.40;;;30.20;90.70;;;;;;5646529;22;20442;-86
2022/08/26 15:17:00;;;;;;;4.10;3.70;;;30.20;91.30;;;;;;5558544;23;20658;-84
2022/08/26 15:19:39;;;;;;;4.47;3.50;;;30.00;91.00;;;;;;5237336;22;20842;-85
2022/08/26 15:24:41;;;;;;;6.95;3.35;;;29.90;92.80;;;;;;5879326;22;20449;-86
2022/08/26 15:27:08;;;;;;;5.60;3.40;;;30.00;90.00;;;;;;5213139;22;20564;-84
2022/08/26 15:29:36;;;;;;;3.23;2.97;;;30.00;87.50;;;;;;5697470;22;20571;-83
2022/08/26 15:37:18;;;;;;;4.30;3.50;;;29.90;86.30;;;;;;5368099;22;21741;-85
2022/08/26 15:42:24;;;;;;;4.60;3.43;;;29.80;89.20;;;;;;5795540;22;20457;-91
2022/08/26 15:47:46;;;;;;;7.10;3.70;;;29.70;91.20;;;;;;5117617;23;20525;-90
2022/08/26 15:50:28;;;;;;;6.73;3.53;;;29.70;93.40;;;;;;5036644;28;20501;-89
2022/08/26 15:55:38;;;;;;;6.57;3.70;;;29.60;93.40;;;;;;5045045;28;20501;-87
2022/08/26 15:58:06;;;;;;;7.40;3.60;;;29.40;94.80;;;;;;5042572;28;20424;-90
2022/08/26 16:00:34;;;;;;;10.10;4.30;;;29.30;95.60;;;;;;5317794;22;20561;-89
2022/08/26 16:03:02;;;;;;;4.50;2.90;;;29.30;96.40;;;;;;5047299;28;20460;-87
2022/08/26 16:05:29;;;;;;;6.37;3.13;;;29.30;96.40;;;;;;5042099;28;20531;-88
2022/08/26 16:07:56;;;;;;;4.27;3.73;;;29.20;97.30;;;;;;5043968;28;20663;-87
2022/08/26 16:10:26;;;;;;;6.70;3.53;;;29.20;99.40;;;;;;5045093;28;20759;-86
2022/08/26 16:12:53;;;;;;;7.23;3.63;;;29.00;98.70;;;;;;5460509;23;20760;-85
2022/08/26 16:15:22;;;;;;;3.70;3.40;;;29.10;99.90;;;;;;5050253;28;20531;-86
2022/08/26 16:17:52;;;;;;;5.63;4.53;;;29.10;99.50;;;;;;5049093;28;20501;-87
2022/08/26 16:20:32;;;;;;;7.00;4.00;;;29.10;99.70;;;;;;5052420;28;20422;-85
2022/08/26 16:23:21;;;;;;;3.90;3.20;;;29.10;99.90;;;;;;5189297;23;20517;-90
2022/08/26 16:25:58;;;;;;;5.00;2.93;;;28.90;99.90;;;;;;5029248;28;20452;-87
2022/08/26 16:31:13;;;;;;;6.40;3.60;;;28.70;99.90;;;;;;5197595;22;20637;-87
2022/08/26 16:33:45;;;;;;;7.80;4.03;;;28.70;99.90;;;;;;5059475;28;20440;-85
2022/08/26 16:36:13;;;;;;;6.27;3.50;;;28.70;99.90;;;;;;5122113;23;20581;-90
2022/08/26 16:38:48;;;;;;;4.20;3.07;;;28.70;99.90;;;;;;5034926;28;20596;-86
2022/08/26 16:41:18;;;;;;;4.23;3.60;;;28.60;99.90;;;;;;5042531;28;20556;-87
2022/08/26 16:43:49;;;;;;;10.00;3.27;;;28.50;99.90;;;;;;5036915;28;20713;-86
2022/08/26 16:46:16;;;;;;;6.70;3.50;;;28.30;99.90;;;;;;5044968;28;20423;-89
2022/08/26 16:48:48;;;;;;;5.27;3.50;;;28.30;99.90;;;;;;5050385;28;20428;-89